createdAt,value
2022-08-30T00:00:09.189Z,20.13
2022-08-30T00:04:09.410Z,13.68
2022-08-30T00:08:12.227Z,10.75
2022-08-30T00:12:14.097Z,21.35
2022-08-30T00:16:15.287Z,19.63
2022-08-30T00:20:19.258Z,13.18
2022-08-30T00:24:21.694Z,19.10
2022-08-30T00:28:21.699Z,20.45
2022-08-30T00:32:22.005Z,17.38
2022-08-30T00:36:22.234Z,19.83
2022-08-30T00:40:27.406Z,15.00
2022-08-30T00:44:27.620Z,15.55
2022-08-30T00:48:28.180Z,16.15
2022-08-30T00:52:28.394Z,15.02
2022-08-30T00:56:32.312Z,21.45
2022-08-30T01:00:33.488Z,12.32
2022-08-30T01:04:34.538Z,16.70
2022-08-30T01:08:34.756Z,20.30
2022-08-30T01:12:37.160Z,19.02
2022-08-30T01:16:38.303Z,16.23
2022-08-30T01:20:45.425Z,18.17
2022-08-30T01:24:47.992Z,20.23
2022-08-30T01:28:50.575Z,27.08
2022-08-30T01:32:51.356Z,21.48
2022-08-30T01:36:51.816Z,16.38
2022-08-30T01:40:59.877Z,21.23
2022-08-30T01:45:00.427Z,17.03
2022-08-30T01:49:01.368Z,13.63
2022-08-30T01:53:00.965Z,19.15
2022-08-30T01:57:03.346Z,15.50
2022-08-30T02:01:03.546Z,19.63
2022-08-30T02:05:03.816Z,16.23
2022-08-30T02:09:05.273Z,13.23
2022-08-30T02:13:06.859Z,10.45
2022-08-30T02:17:08.019Z,15.90
2022-08-30T02:21:09.075Z,10.10
2022-08-30T02:25:20.455Z,38.22
2022-08-30T02:29:26.136Z,18.15
2022-08-30T02:33:27.485Z,16.88
2022-08-30T02:37:27.818Z,14.48
2022-08-30T02:41:30.891Z,15.30
2022-08-30T02:45:36.708Z,12.15
2022-08-30T02:49:37.390Z,17.38
2022-08-30T02:53:38.849Z,19.92
2022-08-30T02:57:40.005Z,15.07
2022-08-30T03:01:42.448Z,11.15
2022-08-30T03:05:46.005Z,15.60
2022-08-30T03:09:47.063Z,18.15
2022-08-30T03:13:47.513Z,18.33
2022-08-30T03:17:50.324Z,10.93
2022-08-30T03:22:01.072Z,17.05
2022-08-30T03:26:01.647Z,14.65
2022-08-30T03:30:01.573Z,16.88
2022-08-30T03:34:10.860Z,21.48
2022-08-30T03:42:11.392Z,16.23
2022-08-30T03:46:20.287Z,13.27
2022-08-30T03:50:33.623Z,17.17
2022-08-30T03:55:01.595Z,26.58
2022-08-30T03:59:02.667Z,14.95
2022-08-30T04:03:03.137Z,15.50
2022-08-30T04:07:07.327Z,12.73
2022-08-30T04:11:08.365Z,18.23
2022-08-30T04:15:11.019Z,14.85
2022-08-30T04:19:11.916Z,24.17
2022-08-30T04:23:27.824Z,16.15
2022-08-30T04:27:54.363Z,10.55
2022-08-30T04:32:23.170Z,24.85
2022-08-30T04:36:52.585Z,15.20
2022-08-30T04:41:13.705Z,15.43
2022-08-30T04:45:16.986Z,19.85
2022-08-30T04:49:17.385Z,16.55
2022-08-30T04:53:18.275Z,17.23
2022-08-30T04:57:20.920Z,13.55
2022-08-30T05:01:23.813Z,20.58
2022-08-30T05:05:42.441Z,19.95
2022-08-30T05:09:43.275Z,17.08
2022-08-30T05:13:46.947Z,27.45
2022-08-30T05:17:47.860Z,18.20
2022-08-30T05:21:50.458Z,20.48
2022-08-30T05:25:51.194Z,19.65
2022-08-30T05:29:53.623Z,18.42
2022-08-30T05:33:56.727Z,19.10
2022-08-30T05:37:59.363Z,24.23
2022-08-30T05:42:00.433Z,22.00
2022-08-30T05:46:08.257Z,18.75
2022-08-30T05:50:15.484Z,20.50
2022-08-30T05:54:18.936Z,15.07
2022-08-30T05:58:19.372Z,15.68
2022-08-30T06:02:23.422Z,19.25
2022-08-30T06:06:29.039Z,22.58
2022-08-30T06:10:29.947Z,20.80
2022-08-30T06:14:33.407Z,20.73
2022-08-30T06:18:41.425Z,24.13
2022-08-30T06:22:42.739Z,21.38
2022-08-30T06:26:53.282Z,15.90
2022-08-30T06:30:54.108Z,23.85
2022-08-30T06:34:58.332Z,19.65
2022-08-30T06:39:01.456Z,21.17
2022-08-30T06:43:05.967Z,19.83
2022-08-30T06:47:06.234Z,20.80
2022-08-30T06:51:10.318Z,22.50
2022-08-30T06:55:15.060Z,24.50
2022-08-30T06:59:15.882Z,22.40
2022-08-30T07:03:24.229Z,14.98
2022-08-30T07:07:30.604Z,22.35
2022-08-30T07:11:42.864Z,20.30
2022-08-30T07:15:47.902Z,15.88
2022-08-30T07:19:48.506Z,17.67
2022-08-30T07:23:56.576Z,19.17
2022-08-30T07:27:57.886Z,16.20
2022-08-30T07:32:00.005Z,25.75
2022-08-30T07:36:01.802Z,14.68
2022-08-30T07:40:10.640Z,15.85
2022-08-30T07:44:23.135Z,18.88
2022-08-30T07:48:32.364Z,21.10
2022-08-30T07:52:34.894Z,15.52
2022-08-30T07:56:39.881Z,20.65
2022-08-30T08:00:41.149Z,14.90
2022-08-30T08:04:43.588Z,23.45
2022-08-30T08:08:47.652Z,18.13
2022-08-30T08:12:56.078Z,20.90
2022-08-30T08:16:59.180Z,11.73
2022-08-30T08:20:59.679Z,16.10
2022-08-30T08:24:59.951Z,17.77
2022-08-30T08:29:04.687Z,17.67
2022-08-30T08:33:04.420Z,25.48
2022-08-30T08:37:05.183Z,18.58
2022-08-30T08:41:10.246Z,14.75
2022-08-30T08:45:19.971Z,21.13
2022-08-30T08:49:37.807Z,17.52
2022-08-30T08:53:47.185Z,14.95
2022-08-30T08:58:01.309Z,15.55
2022-08-30T09:02:16.928Z,20.00
2022-08-30T09:07:04.731Z,16.98
2022-08-30T09:11:16.456Z,19.48
2022-08-30T09:15:27.487Z,18.58
2022-08-30T09:19:42.954Z,17.38
2022-08-30T09:23:52.071Z,25.23
2022-08-30T09:27:56.194Z,16.70
2022-08-30T09:32:25.150Z,21.35
2022-08-30T09:36:31.375Z,17.90
2022-08-30T09:40:38.631Z,18.63
2022-08-30T09:44:43.421Z,18.70
2022-08-30T09:50:09.779Z,20.80
2022-08-30T09:55:23.656Z,17.33
2022-08-30T10:00:58.550Z,21.60
2022-08-30T10:06:31.417Z,19.05
2022-08-30T10:10:53.942Z,14.00
2022-08-30T10:15:21.626Z,14.38
2022-08-30T10:19:45.715Z,13.55
2022-08-30T10:24:21.025Z,14.15
2022-08-30T10:28:35.867Z,14.07
2022-08-30T10:33:02.701Z,14.25
2022-08-30T10:37:29.666Z,13.05
2022-08-30T10:41:50.675Z,10.90
2022-08-30T10:46:25.011Z,13.50
2022-08-30T10:50:41.026Z,11.68
2022-08-30T10:59:37.277Z,12.77
2022-08-30T11:04:24.515Z,20.33
2022-08-30T11:24:29.520Z,14.68
2022-08-30T11:35:20.548Z,15.70
2022-08-30T11:41:12.114Z,20.10
2022-08-30T11:52:58.133Z,28.03
2022-08-30T11:58:29.811Z,12.02
2022-08-30T12:03:41.404Z,21.08
2022-08-30T12:14:41.918Z,13.93
2022-08-30T12:20:18.991Z,19.75
2022-08-30T12:25:19.297Z,14.00
2022-08-30T12:31:30.038Z,11.18
2022-08-30T12:36:17.501Z,19.35
2022-08-30T12:41:22.522Z,15.45
2022-08-30T12:45:39.823Z,18.45
2022-08-30T12:49:46.243Z,19.52
2022-08-30T12:54:23.136Z,17.83
2022-08-30T12:58:51.631Z,26.42
2022-08-30T13:03:02.725Z,17.75
2022-08-30T13:07:32.909Z,19.25
2022-08-30T13:16:30.532Z,15.00
2022-08-30T13:20:36.944Z,22.27
2022-08-30T13:24:37.900Z,11.45
2022-08-30T13:28:56.932Z,17.13
2022-08-30T13:32:56.955Z,11.27
2022-08-30T13:36:58.910Z,17.60
2022-08-30T13:40:59.303Z,11.73
2022-08-30T13:45:02.221Z,17.77
2022-08-30T13:49:06.515Z,20.75
2022-08-30T13:53:06.237Z,14.48
2022-08-30T13:57:07.989Z,15.80
2022-08-30T14:01:10.213Z,13.68
2022-08-30T14:05:30.852Z,17.92
2022-08-30T14:09:31.614Z,16.85
2022-08-30T14:13:31.722Z,12.43
2022-08-30T14:17:35.404Z,19.60
2022-08-30T14:21:37.261Z,23.17
2022-08-30T14:25:52.797Z,22.20
2022-08-30T14:29:54.221Z,13.50
2022-08-30T14:33:59.160Z,10.25
2022-08-30T14:37:59.604Z,14.73
2022-08-30T14:42:04.161Z,14.07
2022-08-30T14:46:07.467Z,17.58
2022-08-30T14:50:11.056Z,11.98
2022-08-30T14:54:12.003Z,15.35
2022-08-30T14:58:16.783Z,27.30
2022-08-30T15:02:17.170Z,15.45
2022-08-30T15:06:18.986Z,20.40
2022-08-30T15:10:21.060Z,24.50
2022-08-30T15:14:23.510Z,15.10
2022-08-30T15:18:24.049Z,14.68
2022-08-30T15:22:26.532Z,17.08
2022-08-30T15:26:27.449Z,24.20
2022-08-30T15:30:27.821Z,28.73
2022-08-30T15:34:28.647Z,33.45
2022-08-30T15:38:31.667Z,25.33
2022-08-30T15:42:33.475Z,24.67
2022-08-30T15:46:35.983Z,11.00
2022-08-30T15:50:41.378Z,18.98
2022-08-30T15:54:48.298Z,11.07
2022-08-30T15:58:50.065Z,20.15
2022-08-30T16:02:53.549Z,18.45
2022-08-30T16:06:53.869Z,19.45
2022-08-30T16:10:56.173Z,21.52
2022-08-30T16:14:58.478Z,60.97
2022-08-30T16:18:59.064Z,39.20
2022-08-30T16:22:59.002Z,54.83
2022-08-30T16:27:03.802Z,44.20
2022-08-30T16:31:08.744Z,36.65
2022-08-30T16:35:14.325Z,35.07
2022-08-30T16:39:14.803Z,49.67
2022-08-30T16:43:17.081Z,53.03
2022-08-30T16:47:18.072Z,73.18
2022-08-30T16:51:20.502Z,62.85
2022-08-30T16:55:20.056Z,62.35
2022-08-30T16:59:24.380Z,81.90
2022-08-30T17:03:24.165Z,45.75
2022-08-30T17:07:24.190Z,40.00
2022-08-30T17:11:23.501Z,40.35
2022-08-30T17:15:26.732Z,29.60
2022-08-30T17:19:28.988Z,28.85
2022-08-30T17:23:30.004Z,28.48
2022-08-30T17:27:32.332Z,16.10
2022-08-30T17:31:35.060Z,29.75
2022-08-30T17:35:34.831Z,18.25
2022-08-30T17:39:35.125Z,35.88
2022-08-30T17:43:38.533Z,13.63
2022-08-30T17:47:41.590Z,21.75
2022-08-30T17:51:42.563Z,24.20
2022-08-30T17:55:42.564Z,21.65
2022-08-30T17:59:42.970Z,20.10
2022-08-30T18:03:46.509Z,22.70
2022-08-30T18:07:46.640Z,21.67
2022-08-30T18:11:48.204Z,20.00
2022-08-30T18:15:50.740Z,21.45
2022-08-30T18:19:56.243Z,23.55
2022-08-30T18:24:00.771Z,19.17
2022-08-30T18:28:27.831Z,14.27
2022-08-30T18:32:36.200Z,16.77
2022-08-30T18:36:46.840Z,17.95
2022-08-30T18:40:49.890Z,21.63
2022-08-30T18:45:14.672Z,21.75
2022-08-30T18:49:32.479Z,15.88
2022-08-30T18:53:40.097Z,23.83
2022-08-30T18:58:06.131Z,14.60
2022-08-30T19:02:14.681Z,17.75
2022-08-30T19:06:14.886Z,14.57
2022-08-30T19:10:21.135Z,19.67
2022-08-30T19:14:20.853Z,13.05
2022-08-30T19:18:21.386Z,12.63
2022-08-30T19:26:46.543Z,14.45
2022-08-30T19:30:46.592Z,13.35
2022-08-30T19:34:46.935Z,16.42
2022-08-30T19:38:46.894Z,14.40
2022-08-30T19:42:50.460Z,9.23
2022-08-30T19:46:53.566Z,17.63
2022-08-30T19:50:55.460Z,13.25
2022-08-30T19:54:58.802Z,16.83
2022-08-30T19:59:01.197Z,14.20
2022-08-30T20:03:02.288Z,17.65
2022-08-30T20:07:02.989Z,15.18
2022-08-30T20:11:03.408Z,26.52
2022-08-30T20:15:12.198Z,13.52
2022-08-30T20:19:14.582Z,15.25
2022-08-30T20:23:14.707Z,11.00
2022-08-30T20:24:33.249Z,13.32
2022-08-30T20:27:19.551Z,15.90
2022-08-30T20:31:22.217Z,13.20
2022-08-30T20:35:23.609Z,13.10
2022-08-30T20:39:24.626Z,14.05
2022-08-30T20:43:27.588Z,14.02
2022-08-30T20:47:30.128Z,14.43
2022-08-30T20:51:30.579Z,17.33
2022-08-30T20:55:33.569Z,11.50
2022-08-30T20:59:34.732Z,14.75
2022-08-30T21:03:37.629Z,15.10
2022-08-30T21:07:40.421Z,13.15
2022-08-30T21:11:44.349Z,12.40
2022-08-30T21:15:46.090Z,11.38
2022-08-30T21:19:48.995Z,13.43
2022-08-30T21:23:50.853Z,17.23
2022-08-30T21:27:53.146Z,10.43
2022-08-30T21:31:53.685Z,11.98
2022-08-30T21:36:12.147Z,21.25
2022-08-30T21:40:14.961Z,10.77
2022-08-30T21:44:17.717Z,15.75
2022-08-30T21:48:18.027Z,15.25
2022-08-30T21:52:20.663Z,10.60
2022-08-30T21:56:23.243Z,9.68
2022-08-30T22:00:23.982Z,10.27
2022-08-30T22:04:26.879Z,14.63
2022-08-30T22:08:28.857Z,19.10
2022-08-30T22:12:29.194Z,9.48
2022-08-30T22:16:30.422Z,10.30
2022-08-30T22:20:30.866Z,12.43
2022-08-30T22:24:34.088Z,10.57
2022-08-30T22:28:34.229Z,15.18
2022-08-30T22:32:34.447Z,11.10
2022-08-30T22:36:37.246Z,12.60
2022-08-30T22:40:45.522Z,12.15
2022-08-30T22:44:50.243Z,10.27
2022-08-30T22:48:52.687Z,8.00
2022-08-30T22:52:52.202Z,10.90
2022-08-30T22:56:54.698Z,7.18
2022-08-30T23:00:56.141Z,10.93
2022-08-30T23:04:56.592Z,10.30
2022-08-30T23:08:56.944Z,8.75
2022-08-30T23:13:00.746Z,12.23
2022-08-30T23:17:01.215Z,12.20
2022-08-30T23:21:06.027Z,8.95
2022-08-30T23:25:32.087Z,13.02
2022-08-30T23:30:00.866Z,8.40
2022-08-30T23:38:34.277Z,8.00
2022-08-30T23:42:49.899Z,9.55
2022-08-30T23:47:08.557Z,13.20
2022-08-30T23:51:25.486Z,9.70
2022-08-30T23:55:42.503Z,18.15
2022-08-30T23:59:59.131Z,23.63
